createdAt,value
2018-04-16T00:02:08.557Z,16.27
2018-04-16T00:04:36.213Z,16.80
2018-04-16T00:07:03.809Z,16.60
2018-04-16T00:09:32.306Z,16.80
2018-04-16T00:12:00.350Z,16.10
2018-04-16T00:14:28.006Z,17.70
2018-04-16T00:16:56.494Z,16.47
2018-04-16T00:19:24.104Z,17.70
2018-04-16T00:21:51.728Z,17.73
2018-04-16T00:24:20.128Z,17.60
2018-04-16T00:26:48.429Z,17.57
2018-04-16T00:29:16.037Z,18.33
2018-04-16T00:34:52.325Z,17.93
2018-04-16T00:37:26.346Z,17.77
2018-04-16T00:39:59.657Z,16.50
2018-04-16T00:42:33.245Z,17.23
2018-04-16T00:45:06.595Z,17.93
2018-04-16T00:47:41.522Z,17.83
2018-04-16T00:50:14.901Z,18.57
2018-04-16T00:55:48.719Z,18.07
2018-04-16T00:58:22.197Z,18.37
2018-04-16T01:00:55.544Z,18.43
2018-04-16T01:03:28.994Z,17.53
2018-04-16T01:06:02.401Z,18.50
2018-04-16T01:08:36.392Z,18.00
2018-04-16T01:11:09.676Z,18.20
2018-04-16T01:13:42.953Z,19.00
2018-04-16T01:19:17.081Z,18.80
2018-04-16T01:21:51.268Z,18.53
2018-04-16T01:24:24.456Z,19.20
2018-04-16T01:26:57.874Z,17.87
2018-04-16T01:29:32.060Z,18.77
2018-04-16T01:32:06.160Z,17.67
2018-04-16T01:34:39.424Z,19.27
2018-04-16T01:37:12.716Z,19.53
2018-04-16T01:39:45.956Z,19.43
2018-04-16T01:42:19.457Z,18.77
2018-04-16T01:44:52.748Z,18.97
2018-04-16T01:47:25.998Z,19.13
2018-04-16T01:49:59.445Z,18.87
2018-04-16T01:52:32.789Z,19.40
2018-04-16T01:55:06.222Z,20.20
2018-04-16T01:57:39.507Z,20.47
2018-04-16T02:00:12.892Z,20.10
2018-04-16T02:02:46.216Z,19.63
2018-04-16T02:05:21.309Z,20.13
2018-04-16T02:10:56.982Z,21.03
2018-04-16T02:13:30.266Z,20.57
2018-04-16T02:16:03.638Z,21.03
2018-04-16T02:18:37.608Z,21.13
2018-04-16T02:21:11.021Z,21.07
2018-04-16T02:23:45.093Z,22.23
2018-04-16T02:26:19.501Z,21.20
2018-04-16T02:28:52.756Z,20.67
2018-04-16T02:31:27.096Z,21.17
2018-04-16T02:34:00.419Z,20.93
2018-04-16T02:39:37.341Z,21.03
2018-04-16T02:42:11.045Z,21.80
2018-04-16T02:44:44.413Z,19.57
2018-04-16T02:47:18.528Z,20.03
2018-04-16T02:49:51.899Z,19.53
2018-04-16T02:55:27.824Z,20.23
2018-04-16T03:01:07.126Z,21.87
2018-04-16T03:03:41.248Z,20.30
2018-04-16T03:06:14.590Z,21.10
2018-04-16T03:11:49.600Z,19.83
2018-04-16T03:14:22.865Z,19.43
2018-04-16T03:16:56.109Z,21.03
2018-04-16T03:19:29.505Z,20.40
2018-04-16T03:22:02.881Z,19.53
2018-04-16T03:24:36.222Z,18.80
2018-04-16T03:27:10.310Z,20.27
2018-04-16T03:29:45.193Z,19.93
2018-04-16T03:32:18.615Z,20.40
2018-04-16T03:34:52.761Z,19.83
2018-04-16T03:37:26.891Z,19.00
2018-04-16T03:40:00.259Z,19.03
2018-04-16T03:42:33.845Z,19.17
2018-04-16T03:45:07.087Z,19.83
2018-04-16T03:47:40.243Z,21.10
2018-04-16T03:50:13.640Z,20.70
2018-04-16T03:52:47.114Z,21.73
2018-04-16T03:55:19.752Z,21.27
2018-04-16T03:57:47.402Z,20.20
2018-04-16T04:00:15.937Z,20.90
2018-04-16T04:02:43.524Z,21.50
2018-04-16T04:05:11.127Z,20.60
2018-04-16T04:07:38.769Z,21.20
2018-04-16T04:10:06.358Z,21.33
2018-04-16T04:12:34.019Z,20.67
2018-04-16T04:15:01.603Z,21.07
2018-04-16T04:17:29.189Z,21.17
2018-04-16T04:19:57.578Z,21.40
2018-04-16T04:22:37.806Z,22.20
2018-04-16T04:25:17.335Z,21.00
2018-04-16T04:27:56.909Z,20.60
2018-04-16T04:30:32.293Z,19.33
2018-04-16T04:32:59.912Z,21.10
2018-04-16T04:35:28.325Z,20.80
2018-04-16T04:37:55.954Z,21.57
2018-04-16T04:40:24.373Z,19.03
2018-04-16T04:42:51.998Z,21.13
2018-04-16T04:45:20.373Z,21.70
2018-04-16T04:47:47.969Z,21.47
2018-04-16T04:50:15.708Z,21.57
2018-04-16T04:52:43.338Z,21.50
2018-04-16T04:55:12.616Z,20.83
2018-04-16T04:57:40.437Z,21.63
2018-04-16T05:00:08.829Z,21.57
2018-04-16T05:02:37.599Z,21.77
2018-04-16T05:05:05.257Z,19.47
2018-04-16T05:07:32.891Z,20.87
2018-04-16T05:10:01.327Z,21.50
2018-04-16T05:12:28.938Z,21.40
2018-04-16T05:14:57.366Z,22.00
2018-04-16T05:17:25.693Z,23.03
2018-04-16T05:19:54.667Z,22.93
2018-04-16T05:22:22.345Z,23.70
2018-04-16T05:24:50.736Z,22.03
2018-04-16T05:27:18.364Z,22.27
2018-04-16T05:29:46.767Z,19.83
2018-04-16T05:32:15.147Z,20.37
2018-04-16T05:34:43.518Z,21.67
2018-04-16T05:37:12.385Z,21.30
2018-04-16T05:39:40.123Z,19.60
2018-04-16T05:42:08.105Z,20.80
2018-04-16T05:44:35.732Z,21.37
2018-04-16T05:47:04.712Z,21.07
2018-04-16T05:49:32.376Z,20.53
2018-04-16T05:52:00.062Z,21.13
2018-04-16T05:54:27.666Z,21.60
2018-04-16T05:56:57.040Z,21.03
2018-04-16T05:59:24.718Z,20.27
2018-04-16T06:01:53.166Z,19.07
2018-04-16T06:04:20.807Z,19.27
2018-04-16T06:06:48.483Z,20.70
2018-04-16T06:09:16.117Z,20.07
2018-04-16T06:11:43.796Z,20.60
2018-04-16T06:14:11.658Z,20.70
2018-04-16T06:16:39.264Z,20.77
2018-04-16T06:19:06.911Z,21.80
2018-04-16T06:21:35.383Z,23.07
2018-04-16T06:24:03.158Z,22.20
2018-04-16T06:26:31.034Z,21.70
2018-04-16T06:28:59.562Z,23.03
2018-04-16T06:31:27.177Z,24.03
2018-04-16T06:33:57.246Z,23.20
2018-04-16T06:36:24.907Z,23.67
2018-04-16T06:38:52.493Z,23.77
2018-04-16T06:41:20.153Z,24.70
2018-04-16T06:43:47.824Z,24.67
2018-04-16T06:46:16.089Z,24.70
2018-04-16T06:48:45.739Z,24.53
2018-04-16T06:51:13.447Z,24.97
2018-04-16T06:53:42.303Z,24.40
2018-04-16T06:56:10.077Z,24.17
2018-04-16T06:58:38.377Z,23.43
2018-04-16T07:01:06.153Z,23.73
2018-04-16T07:03:34.567Z,25.17
2018-04-16T07:06:03.546Z,24.67
2018-04-16T07:08:31.192Z,24.77
2018-04-16T07:11:00.248Z,23.83
2018-04-16T07:13:27.849Z,23.43
2018-04-16T07:15:55.515Z,23.40
2018-04-16T07:18:23.186Z,24.80
2018-04-16T07:20:52.041Z,25.23
2018-04-16T07:23:19.802Z,25.07
2018-04-16T07:25:47.566Z,24.90
2018-04-16T07:28:15.231Z,24.07
2018-04-16T07:30:42.828Z,25.77
2018-04-16T07:33:11.604Z,24.30
2018-04-16T07:35:41.144Z,23.97
2018-04-16T07:38:10.357Z,24.47
2018-04-16T07:40:39.672Z,24.43
2018-04-16T07:43:07.353Z,24.57
2018-04-16T07:45:35.794Z,24.13
2018-04-16T07:48:04.296Z,23.50
2018-04-16T07:50:31.953Z,25.20
2018-04-16T07:52:59.612Z,24.43
2018-04-16T07:55:27.239Z,24.30
2018-04-16T07:57:54.890Z,24.73
2018-04-16T08:00:23.315Z,25.40
2018-04-16T08:02:51.044Z,24.77
2018-04-16T08:05:18.661Z,25.50
2018-04-16T08:07:47.049Z,23.90
2018-04-16T08:10:16.303Z,25.00
2018-04-16T08:12:43.933Z,26.40
2018-04-16T08:15:11.536Z,24.57
2018-04-16T08:17:39.226Z,25.83
2018-04-16T08:20:06.876Z,24.80
2018-04-16T08:22:34.496Z,26.40
2018-04-16T08:25:02.140Z,28.13
2018-04-16T08:27:30.677Z,27.33
2018-04-16T08:29:58.525Z,29.30
2018-04-16T08:32:26.204Z,27.90
2018-04-16T08:34:53.846Z,25.50
2018-04-16T08:37:21.625Z,25.23
2018-04-16T08:39:49.731Z,26.40
2018-04-16T08:42:18.154Z,25.90
2018-04-16T08:44:45.747Z,25.07
2018-04-16T08:47:13.365Z,26.87
2018-04-16T08:49:41.017Z,25.63
2018-04-16T08:52:08.657Z,26.87
2018-04-16T08:54:37.093Z,25.50
2018-04-16T08:57:04.705Z,25.30
2018-04-16T08:59:32.355Z,25.13
2018-04-16T09:02:00.733Z,25.70
2018-04-16T09:04:29.140Z,25.33
2018-04-16T09:06:56.821Z,24.90
2018-04-16T09:09:24.547Z,23.87
2018-04-16T09:11:52.347Z,26.90
2018-04-16T09:14:20.102Z,24.60
2018-04-16T09:16:47.763Z,24.73
2018-04-16T09:19:15.392Z,24.47
2018-04-16T09:21:43.092Z,24.97
2018-04-16T09:24:10.691Z,22.63
2018-04-16T09:26:39.157Z,22.73
2018-04-16T09:29:06.826Z,23.10
2018-04-16T09:31:34.463Z,24.57
2018-04-16T09:34:02.733Z,24.03
2018-04-16T09:36:30.516Z,25.40
2018-04-16T09:38:58.170Z,25.60
2018-04-16T09:41:25.905Z,25.60
2018-04-16T09:43:53.574Z,24.23
2018-04-16T09:46:21.210Z,26.23
2018-04-16T09:48:48.860Z,24.00
2018-04-16T09:51:17.297Z,24.60
2018-04-16T09:53:44.915Z,23.93
2018-04-16T09:56:12.593Z,23.93
2018-04-16T09:58:40.222Z,23.63
2018-04-16T10:01:14.461Z,22.77
2018-04-16T10:03:42.177Z,21.13
2018-04-16T10:06:09.794Z,23.33
2018-04-16T10:08:37.475Z,27.97
2018-04-16T10:11:05.117Z,24.30
2018-04-16T10:13:32.785Z,21.07
2018-04-16T10:16:00.562Z,22.73
2018-04-16T10:18:28.512Z,24.10
2018-04-16T10:20:56.149Z,22.70
2018-04-16T10:23:23.830Z,22.50
2018-04-16T10:25:51.420Z,22.23
2018-04-16T10:28:19.073Z,21.47
2018-04-16T10:30:46.797Z,22.77
2018-04-16T10:33:15.033Z,20.17
2018-04-16T10:35:42.690Z,22.37
2018-04-16T10:38:11.104Z,21.50
2018-04-16T10:40:39.495Z,21.17
2018-04-16T10:43:07.713Z,21.07
2018-04-16T10:45:35.377Z,19.87
2018-04-16T10:48:03.055Z,19.93
2018-04-16T10:50:31.463Z,23.20
2018-04-16T10:52:59.111Z,21.47
2018-04-16T10:55:26.751Z,20.83
2018-04-16T10:57:55.165Z,21.03
2018-04-16T11:00:22.780Z,19.97
2018-04-16T11:02:51.170Z,19.70
2018-04-16T11:05:19.554Z,20.90
2018-04-16T11:07:47.940Z,21.00
2018-04-16T11:10:16.390Z,21.63
2018-04-16T11:12:44.831Z,21.57
2018-04-16T11:15:12.496Z,19.43
2018-04-16T11:17:40.115Z,19.40
2018-04-16T11:20:08.537Z,19.20
2018-04-16T11:22:36.304Z,19.50
2018-04-16T11:25:03.957Z,19.30
2018-04-16T11:27:31.618Z,19.60
2018-04-16T11:29:59.292Z,18.83
2018-04-16T11:32:26.900Z,18.67
2018-04-16T11:34:55.844Z,19.37
2018-04-16T11:37:23.496Z,18.83
2018-04-16T11:39:51.156Z,18.93
2018-04-16T11:42:18.792Z,18.13
2018-04-16T11:44:46.409Z,18.10
2018-04-16T11:47:14.054Z,17.93
2018-04-16T11:49:41.798Z,16.93
2018-04-16T11:52:09.468Z,17.27
2018-04-16T11:54:37.160Z,17.63
2018-04-16T11:57:05.515Z,17.70
2018-04-16T11:59:33.139Z,19.03
2018-04-16T12:02:00.774Z,17.70
2018-04-16T12:04:29.225Z,16.67
2018-04-16T12:06:57.678Z,19.63
2018-04-16T12:09:25.389Z,18.27
2018-04-16T12:11:53.804Z,16.57
2018-04-16T12:14:22.097Z,16.40
2018-04-16T12:16:49.805Z,16.77
2018-04-16T12:19:18.235Z,15.00
2018-04-16T12:21:46.316Z,14.70
2018-04-16T12:24:13.946Z,15.67
2018-04-16T12:26:41.584Z,15.33
2018-04-16T12:29:09.969Z,16.70
2018-04-16T12:31:39.242Z,16.30
2018-04-16T12:34:06.883Z,14.57
2018-04-16T12:36:34.521Z,16.23
2018-04-16T12:39:02.126Z,15.90
2018-04-16T12:41:29.817Z,15.93
2018-04-16T12:43:57.508Z,14.80
2018-04-16T12:46:25.155Z,15.97
2018-04-16T12:48:52.800Z,16.40
2018-04-16T12:51:21.146Z,17.30
2018-04-16T12:53:48.906Z,16.53
2018-04-16T12:56:17.404Z,17.23
2018-04-16T12:58:45.779Z,17.83
2018-04-16T13:01:14.164Z,19.00
2018-04-16T13:03:41.841Z,18.73
2018-04-16T13:06:09.435Z,17.73
2018-04-16T13:08:37.062Z,18.53
2018-04-16T13:11:04.786Z,19.93
2018-04-16T13:13:33.180Z,18.60
2018-04-16T13:16:01.597Z,18.23
2018-04-16T13:18:29.266Z,17.83
2018-04-16T13:20:57.042Z,18.30
2018-04-16T13:23:24.730Z,18.70
2018-04-16T13:25:52.457Z,20.03
2018-04-16T13:28:20.080Z,17.33
2018-04-16T13:30:47.671Z,18.70
2018-04-16T13:33:15.354Z,19.03
2018-04-16T13:35:43.036Z,18.33
2018-04-16T13:38:10.653Z,17.13
2018-04-16T13:40:38.426Z,17.90
2018-04-16T13:43:06.128Z,21.13
2018-04-16T13:45:34.565Z,18.33
2018-04-16T13:48:02.160Z,18.67
2018-04-16T13:50:31.030Z,18.90
2018-04-16T13:52:58.826Z,19.87
2018-04-16T13:55:27.255Z,20.00
2018-04-16T13:57:54.993Z,22.50
2018-04-16T14:00:22.658Z,23.03
2018-04-16T14:02:50.368Z,26.97
2018-04-16T14:05:18.119Z,21.70
2018-04-16T14:07:45.803Z,22.53
2018-04-16T14:10:13.409Z,21.30
2018-04-16T14:12:40.994Z,20.70
2018-04-16T14:15:08.756Z,20.10
2018-04-16T14:17:36.388Z,21.03
2018-04-16T14:20:04.056Z,20.87
2018-04-16T14:22:31.666Z,20.50
2018-04-16T14:24:59.276Z,22.07
2018-04-16T14:27:26.998Z,20.33
2018-04-16T14:29:55.631Z,19.60
2018-04-16T14:32:23.324Z,19.33
2018-04-16T14:34:51.008Z,20.37
2018-04-16T14:37:19.365Z,20.17
2018-04-16T14:39:47.945Z,20.63
2018-04-16T14:42:16.618Z,22.30
2018-04-16T14:44:44.259Z,20.17
2018-04-16T14:47:11.930Z,22.93
2018-04-16T14:49:39.564Z,22.47
2018-04-16T14:52:07.190Z,23.70
2018-04-16T14:54:35.655Z,34.77
2018-04-16T14:57:04.060Z,25.87
2018-04-16T14:59:32.430Z,25.13
2018-04-16T15:02:00.823Z,25.60
2018-04-16T15:04:29.256Z,26.20
2018-04-16T15:06:56.840Z,27.10
2018-04-16T15:09:25.281Z,28.90
2018-04-16T15:11:52.931Z,29.87
2018-04-16T15:14:20.530Z,30.27
2018-04-16T15:16:48.166Z,28.33
2018-04-16T15:19:16.027Z,29.90
2018-04-16T15:21:43.636Z,29.20
2018-04-16T15:24:12.993Z,31.63
2018-04-16T15:26:40.680Z,32.13
2018-04-16T15:29:08.413Z,30.30
2018-04-16T15:31:36.072Z,31.47
2018-04-16T15:34:03.669Z,31.83
2018-04-16T15:36:31.908Z,31.47
2018-04-16T15:38:59.572Z,32.13
2018-04-16T15:41:27.230Z,29.80
2018-04-16T15:43:54.929Z,31.50
2018-04-16T15:46:22.559Z,31.20
2018-04-16T15:48:50.154Z,32.53
2018-04-16T15:51:18.595Z,31.37
2018-04-16T15:53:47.008Z,33.03
2018-04-16T15:56:16.066Z,33.33
2018-04-16T15:58:43.689Z,31.57
2018-04-16T16:01:12.191Z,32.47
2018-04-16T16:03:39.826Z,31.93
2018-04-16T16:06:07.436Z,32.93
2018-04-16T16:08:35.930Z,32.80
2018-04-16T16:11:04.478Z,34.53
2018-04-16T16:13:32.162Z,36.50
2018-04-16T16:15:59.924Z,33.77
2018-04-16T16:18:27.524Z,35.33
2018-04-16T16:20:55.968Z,30.37
2018-04-16T16:23:24.455Z,32.80
2018-04-16T16:25:52.087Z,37.37
2018-04-16T16:28:19.703Z,37.27
2018-04-16T16:30:48.153Z,36.13
2018-04-16T16:33:15.795Z,37.33
2018-04-16T16:35:43.408Z,37.70
2018-04-16T16:38:11.934Z,40.70
2018-04-16T16:40:39.575Z,42.50
2018-04-16T16:43:07.280Z,40.97
2018-04-16T16:45:34.884Z,42.10
2018-04-16T16:48:02.490Z,43.93
2018-04-16T16:50:30.131Z,43.63
2018-04-16T16:52:57.754Z,42.43
2018-04-16T16:55:26.124Z,42.60
2018-04-16T16:57:54.527Z,41.60
2018-04-16T17:00:22.233Z,42.90
2018-04-16T17:02:49.891Z,40.27
2018-04-16T17:05:17.604Z,42.20
2018-04-16T17:07:45.317Z,39.63
2018-04-16T17:10:13.003Z,40.57
2018-04-16T17:12:41.408Z,40.13
2018-04-16T17:15:09.038Z,38.63
2018-04-16T17:17:36.728Z,37.87
2018-04-16T17:20:04.450Z,39.60
2018-04-16T17:22:32.067Z,38.00
2018-04-16T17:25:00.313Z,39.87
2018-04-16T17:27:28.735Z,40.37
2018-04-16T17:29:56.608Z,39.17
2018-04-16T17:32:24.265Z,38.07
2018-04-16T17:34:51.959Z,37.60
2018-04-16T17:37:19.604Z,37.40
2018-04-16T17:39:47.223Z,39.67
2018-04-16T17:42:14.945Z,37.50
2018-04-16T17:44:43.351Z,37.90
2018-04-16T17:47:29.714Z,35.77
2018-04-16T17:49:57.385Z,34.23
2018-04-16T17:52:25.048Z,36.97
2018-04-16T17:54:53.457Z,36.33
2018-04-16T17:57:21.079Z,36.57
2018-04-16T17:59:48.753Z,35.67
2018-04-16T18:02:17.159Z,37.53
2018-04-16T18:04:44.846Z,35.77
2018-04-16T18:07:12.676Z,36.80
2018-04-16T18:09:40.283Z,36.37
2018-04-16T18:12:07.902Z,37.77
2018-04-16T18:14:35.581Z,36.73
2018-04-16T18:17:04.047Z,38.17
2018-04-16T18:19:32.374Z,34.83
2018-04-16T18:22:00.944Z,37.03
2018-04-16T18:24:28.575Z,35.33
2018-04-16T18:26:56.991Z,35.80
2018-04-16T18:29:36.614Z,36.87
2018-04-16T18:32:05.155Z,35.47
2018-04-16T18:34:33.602Z,36.83
2018-04-16T18:37:01.272Z,35.23
2018-04-16T18:39:28.926Z,35.03
2018-04-16T18:41:57.780Z,36.07
2018-04-16T18:44:25.473Z,35.57
2018-04-16T18:46:53.146Z,36.33
2018-04-16T18:49:20.945Z,35.70
2018-04-16T18:51:48.771Z,34.20
2018-04-16T18:54:16.398Z,34.90
2018-04-16T18:56:44.322Z,34.20
2018-04-16T18:59:12.679Z,36.80
2018-04-16T19:01:41.074Z,36.63
2018-04-16T19:04:09.559Z,36.20
2018-04-16T19:06:37.930Z,36.17
2018-04-16T19:09:06.295Z,35.33
2018-04-16T19:11:34.790Z,35.03
2018-04-16T19:14:03.197Z,36.97
2018-04-16T19:16:30.834Z,37.93
2018-04-16T19:18:59.268Z,36.97
2018-04-16T19:21:32.632Z,36.40
2018-04-16T19:24:00.220Z,36.13
2018-04-16T19:26:27.905Z,36.57
2018-04-16T19:28:55.542Z,35.73
2018-04-16T19:31:23.260Z,35.03
2018-04-16T19:33:56.741Z,34.97
2018-04-16T19:36:24.367Z,35.70
2018-04-16T19:38:51.999Z,34.23
2018-04-16T19:41:19.669Z,32.57
2018-04-16T19:43:47.296Z,33.07
2018-04-16T19:46:15.654Z,32.10
2018-04-16T19:51:49.000Z,30.57
2018-04-16T19:54:16.713Z,30.60
2018-04-16T19:56:49.945Z,31.23
2018-04-16T19:59:17.722Z,32.63
2018-04-16T20:01:45.507Z,33.23
2018-04-16T20:04:13.115Z,32.23
2018-04-16T20:06:41.846Z,31.70
2018-04-16T20:09:09.467Z,31.30
2018-04-16T20:11:37.822Z,32.40
2018-04-16T20:14:05.443Z,33.23
2018-04-16T20:16:33.124Z,32.93
2018-04-16T20:19:00.962Z,33.27
2018-04-16T20:21:29.286Z,32.03
2018-04-16T20:23:57.016Z,32.57
2018-04-16T20:26:24.715Z,31.27
2018-04-16T20:28:52.355Z,34.47
2018-04-16T20:31:20.114Z,33.33
2018-04-16T20:33:47.865Z,32.60
2018-04-16T20:36:15.618Z,33.40
2018-04-16T20:38:43.357Z,32.23
2018-04-16T20:41:10.994Z,31.73
2018-04-16T20:43:39.478Z,33.37
2018-04-16T20:46:07.858Z,34.90
2018-04-16T20:48:36.291Z,33.80
2018-04-16T20:51:04.015Z,32.93
2018-04-16T20:53:32.018Z,34.77
2018-04-16T20:55:59.835Z,36.07
2018-04-16T20:58:28.217Z,35.80
2018-04-16T21:00:56.983Z,36.33
2018-04-16T21:03:24.615Z,37.27
2018-04-16T21:05:52.255Z,37.40
2018-04-16T21:08:19.974Z,37.20
2018-04-16T21:10:48.377Z,37.47
2018-04-16T21:13:18.435Z,38.77
2018-04-16T21:15:46.133Z,37.13
2018-04-16T21:18:14.510Z,38.83
2018-04-16T21:20:42.097Z,39.07
2018-04-16T21:23:09.750Z,39.70
2018-04-16T21:25:38.601Z,39.73
2018-04-16T21:28:06.225Z,38.80
2018-04-16T21:30:34.951Z,38.53
2018-04-16T21:33:02.531Z,39.50
2018-04-16T21:35:30.957Z,39.93
2018-04-16T21:37:58.625Z,39.37
2018-04-16T21:40:26.243Z,39.73
2018-04-16T21:42:54.647Z,41.30
2018-04-16T21:45:22.267Z,39.47
2018-04-16T21:47:50.673Z,40.93
2018-04-16T21:50:18.351Z,41.13
2018-04-16T21:52:45.980Z,39.60
2018-04-16T21:55:14.359Z,43.37
2018-04-16T21:57:42.857Z,42.60
2018-04-16T22:00:13.879Z,43.80
2018-04-16T22:02:43.094Z,41.13
2018-04-16T22:05:12.482Z,42.83
2018-04-16T22:07:40.879Z,44.33
2018-04-16T22:10:08.844Z,43.63
2018-04-16T22:12:36.436Z,42.30
2018-04-16T22:15:04.303Z,41.47
2018-04-16T22:17:31.915Z,41.47
2018-04-16T22:20:00.300Z,42.00
2018-04-16T22:22:27.961Z,43.03
2018-04-16T22:24:55.567Z,43.47
2018-04-16T22:27:23.171Z,42.73
2018-04-16T22:29:51.596Z,42.03
2018-04-16T22:32:19.793Z,41.70
2018-04-16T22:34:48.207Z,44.03
2018-04-16T22:37:16.602Z,44.00
2018-04-16T22:39:44.214Z,43.10
2018-04-16T22:42:12.666Z,44.30
2018-04-16T22:44:40.365Z,43.27
2018-04-16T22:47:09.437Z,44.53
2018-04-16T22:49:37.159Z,42.90
2018-04-16T22:52:04.971Z,43.50
2018-04-16T22:54:32.616Z,43.40
2018-04-16T22:57:00.290Z,44.50
2018-04-16T22:59:27.905Z,43.40
2018-04-16T23:01:55.606Z,44.30
2018-04-16T23:04:24.097Z,43.70
2018-04-16T23:06:52.433Z,42.63
2018-04-16T23:09:20.083Z,42.17
2018-04-16T23:11:47.780Z,41.80
2018-04-16T23:14:15.473Z,41.53
2018-04-16T23:16:43.117Z,42.03
2018-04-16T23:19:10.796Z,40.30
2018-04-16T23:21:38.424Z,41.70
2018-04-16T23:24:06.009Z,40.90
2018-04-16T23:26:34.450Z,44.13
2018-04-16T23:29:02.059Z,42.53
2018-04-16T23:31:30.648Z,42.40
2018-04-16T23:33:59.034Z,41.13
2018-04-16T23:36:26.679Z,39.10
2018-04-16T23:38:58.110Z,39.70
2018-04-16T23:41:27.279Z,39.47
2018-04-16T23:43:54.929Z,39.00
2018-04-16T23:46:22.601Z,37.70
2018-04-16T23:48:50.820Z,37.60
2018-04-16T23:51:19.191Z,37.63
2018-04-16T23:53:47.592Z,37.00
2018-04-16T23:56:15.747Z,37.10
2018-04-16T23:58:44.122Z,36.27
